»·PEaware :: SKW5766 KDEN-KASE

SKW5766 :: KDEN-KASE

FLIGHT INFORMATION

Flight Status: Arrived
Operator:
SkyWest Airlines
More flights by this operator :: More flights under this callsign
Pilot: Anonymous 11975 (11975)
Aircraft: CANADAIR CL-600 CRJ-700
(CRJ7)
More flights by this aircraft type
Origin: KDEN Denver Intl
United States
Destination: KASE Aspen-Pitkin Co/Sardy
United States
More flights between these airports :: More routes between these airports
Route: CONNR7 WERNR ZAKOR
File this flight plan on PilotEdge
Remarks:
Altitude:
(Current/Filed)
22,000ft
Speed:
(Current/Filed)
371kts
Departed: 12-Aug-22 10:58 AM
Arrived: 12-Aug-22 12:02 PM
Distance/Time
Traveled:
109nm/1:04
Distance/Time
To Go:
Arrived

Flight Plot

Page will automatically refresh every two minutes.

Flight plan parsing failed; only flown route is shown


Map Options




Map Legend


Flown Route
Filed Route
Departure Airport
Arrival Airport
Navaid (VOR, NDB)
Fix

Horizontal Profiles

Position Reports

Time Latitude Longitude Heading Altitude Ground
Speed
12-Aug-22 10:36 39.857500 -104.666908 1 5364ft 0kts
12-Aug-22 10:38 39.857500 -104.666908 1 5364ft 0kts
12-Aug-22 10:39 39.857500 -104.666908 1 5364ft 0kts
12-Aug-22 10:40 39.857500 -104.666908 1 5364ft 0kts
12-Aug-22 10:40 39.857500 -104.666908 1 5364ft 0kts
12-Aug-22 10:41 39.857500 -104.666908 1 5364ft 0kts
12-Aug-22 10:43 39.857500 -104.666908 1 5364ft 0kts
12-Aug-22 10:44 39.857500 -104.666908 1 5364ft 0kts
12-Aug-22 10:44 39.857500 -104.666908 1 5364ft 0kts
12-Aug-22 10:45 39.857500 -104.666908 1 5364ft 0kts
12-Aug-22 10:46 39.856886 -104.666934 1 5363ft 2kts
12-Aug-22 10:48 39.856596 -104.667061 271 5364ft 0kts
12-Aug-22 10:48 39.856596 -104.667061 271 5364ft 0kts
12-Aug-22 10:49 39.856597 -104.667355 270 5364ft 7kts
12-Aug-22 10:50 39.856629 -104.672925 270 5364ft 18kts
12-Aug-22 10:51 39.856680 -104.679416 270 5364ft 15kts
12-Aug-22 10:52 39.856865 -104.682636 270 5364ft 12kts
12-Aug-22 10:53 39.852295 -104.684016 180 5362ft 28kts
12-Aug-22 10:54 39.844043 -104.684104 180 5364ft 27kts
12-Aug-22 10:55 39.841787 -104.684147 180 5363ft 0kts
12-Aug-22 10:56 39.840620 -104.684413 260 5360ft 6kts
12-Aug-22 10:57 39.840797 -104.718586 273 5977ft 164kts
12-Aug-22 10:58 39.841269 -104.789579 272 8026ft 226kts
12-Aug-22 10:59 39.842781 -104.884883 272 9978ft 295kts
12-Aug-22 11:00 39.824481 -105.002182 254 12284ft 355kts
12-Aug-22 11:01 39.797998 -105.129017 255 15816ft 371kts
12-Aug-22 11:02 39.771197 -105.261659 253 19040ft 387kts
12-Aug-22 11:03 39.743256 -105.399429 252 21707ft 404kts
12-Aug-22 11:04 39.712611 -105.547045 252 22148ft 426kts
12-Aug-22 11:05 39.683293 -105.693991 254 22176ft 415kts
12-Aug-22 11:06 39.664862 -105.841262 257 22217ft 411kts
12-Aug-22 11:07 39.644616 -105.988046 256 22201ft 421kts
12-Aug-22 11:08 39.623534 -106.140413 256 22088ft 432kts
12-Aug-22 11:09 39.602063 -106.292753 256 22123ft 426kts
12-Aug-22 11:10 39.579291 -106.445222 257 20151ft 436kts
12-Aug-22 11:11 39.559931 -106.589191 258 17700ft 382kts
12-Aug-22 11:12 39.541765 -106.708464 256 16750ft 287kts
12-Aug-22 11:13 39.524689 -106.800446 255 16047ft 257kts
12-Aug-22 11:14 39.503985 -106.889383 221 15166ft 255kts
12-Aug-22 11:15 39.438799 -106.913560 189 13980ft 247kts
12-Aug-22 11:16 39.375439 -106.937694 194 13787ft 215kts
12-Aug-22 11:17 39.327098 -106.918498 158 12136ft 163kts
12-Aug-22 11:18 39.285490 -106.898420 161 10517ft 171kts
12-Aug-22 11:19 39.241054 -106.877200 157 9574ft 176kts
12-Aug-22 11:20 39.183639 -106.850493 160 11796ft 243kts
12-Aug-22 11:21 39.131866 -106.880676 272 13930ft 262kts
12-Aug-22 11:22 39.186853 -106.927752 349 14167ft 264kts
12-Aug-22 11:23 39.255930 -106.951634 311 13795ft 253kts
12-Aug-22 11:24 39.297735 -107.024864 306 13724ft 252kts
12-Aug-22 11:25 39.344249 -107.095564 310 13709ft 258kts
12-Aug-22 11:26 39.406619 -107.134588 347 13705ft 258kts
12-Aug-22 11:27 39.477110 -107.152877 349 13761ft 255kts
12-Aug-22 11:28 39.511462 -107.097393 96 13897ft 234kts
12-Aug-22 11:29 39.481178 -107.029044 128 13882ft 220kts
12-Aug-22 11:30 39.436636 -106.973968 152 13465ft 234kts
12-Aug-22 11:31 39.383666 -106.945252 159 12665ft 191kts
12-Aug-22 11:32 39.335180 -106.922362 159 11571ft 161kts
12-Aug-22 11:33 39.291951 -106.901649 160 10238ft 165kts
12-Aug-22 11:34 39.250157 -106.881814 158 8741ft 155kts
12-Aug-22 11:35 39.205224 -106.880730 228 10263ft 188kts
12-Aug-22 11:36 39.233675 -106.928546 338 12078ft 244kts
12-Aug-22 11:37 39.282100 -106.996467 301 13570ft 262kts
12-Aug-22 11:38 39.324463 -107.070914 312 13582ft 249kts
12-Aug-22 11:39 39.384922 -107.103291 348 13691ft 247kts
12-Aug-22 11:40 39.455320 -107.121377 355 13804ft 261kts
12-Aug-22 11:41 39.488653 -107.059704 97 13840ft 211kts
12-Aug-22 11:42 39.457273 -106.997001 128 13732ft 214kts
12-Aug-22 11:43 39.410913 -106.959505 156 13062ft 169kts
12-Aug-22 11:44 39.367371 -106.937423 159 12399ft 173kts
12-Aug-22 11:45 39.322914 -106.916473 159 11425ft 168kts
12-Aug-22 11:46 39.278991 -106.895479 160 10020ft 169kts
12-Aug-22 11:47 39.236663 -106.897159 253 10204ft 208kts
12-Aug-22 11:48 39.263579 -106.973987 299 11987ft 264kts
12-Aug-22 11:49 39.311617 -107.043840 323 13537ft 256kts
12-Aug-22 11:50 39.358687 -107.113713 322 13608ft 258kts
12-Aug-22 11:51 39.426101 -107.137965 348 13747ft 253kts
12-Aug-22 11:52 39.494917 -107.152431 14 13810ft 248kts
12-Aug-22 11:53 39.508253 -107.078419 110 13864ft 234kts
12-Aug-22 11:54 39.474576 -107.016932 128 13771ft 185kts
12-Aug-22 11:55 39.439133 -106.978140 153 13521ft 176kts
12-Aug-22 11:56 39.394800 -106.950594 156 12635ft 166kts
12-Aug-22 11:57 39.350822 -106.929002 162 11908ft 169kts
12-Aug-22 11:58 39.308600 -106.908789 161 10765ft 159kts
12-Aug-22 11:59 39.264779 -106.888789 160 8494ft 175kts
12-Aug-22 12:00 39.223807 -106.869144 159 7749ft 114kts
12-Aug-22 12:01 39.218820 -106.865403 72 7786ft 8kts
12-Aug-22 12:02 39.219022 -106.864567 72 7788ft 0kts

Navigation Log

Ident Type
Flight plan parsing failed, navigation log unavailable